Time;durP1;ratioP1;P1;durP2;ratioP2;P2;SDS_P1;SDS_P2;PMS_P1;PMS_P2;Temp;Humidity;BMP_temperature;BMP_pressure;BME280_temperature;BME280_humidity;BME280_pressure;Samples;Min_cycle;Max_cycle;Signal;HPM_P1;HPM_P2
2021/12/16 00:03:26;;;;;;;42.80;23.00;;;7.70;99.90;;;;;;5036040;28;20135;-70
2021/12/16 00:19:33;;;;;;;51.70;24.70;;;7.80;99.90;;;;;;5052083;28;20051;-70
2021/12/16 00:35:36;;;;;;;52.58;25.20;;;8.00;99.90;;;;;;5052079;28;20125;-71
2021/12/16 00:38:02;;;;;;;50.92;25.77;;;8.00;99.90;;;;;;5051361;28;20145;-71
2021/12/16 00:40:28;;;;;;;49.97;26.67;;;8.00;99.90;;;;;;5052537;28;20048;-70
2021/12/16 00:42:59;;;;;;;49.65;25.92;;;8.00;99.90;;;;;;5052402;28;20052;-71
2021/12/16 00:45:44;;;;;;;51.85;25.40;;;8.00;99.90;;;;;;5051782;28;20434;-74
2021/12/16 00:55:57;;;;;;;50.08;25.80;;;8.00;99.90;;;;;;5052172;28;20351;-70
2021/12/16 00:58:33;;;;;;;54.75;26.17;;;8.00;99.90;;;;;;5051989;28;20052;-71
2021/12/16 01:01:08;;;;;;;56.35;26.45;;;8.00;99.90;;;;;;5052379;28;20068;-72
2021/12/16 01:03:57;;;;;;;54.38;27.10;;;8.00;99.90;;;;;;5052624;28;20045;-70
2021/12/16 01:06:41;;;;;;;55.55;26.55;;;8.00;99.90;;;;;;5052158;28;20115;-70
2021/12/16 01:37:17;;;;;;;60.38;29.00;;;7.80;99.90;;;;;;5051749;28;20048;-70
2021/12/16 01:50:23;;;;;;;72.75;30.70;;;7.70;99.90;;;;;;5051381;28;20056;-69
2021/12/16 01:53:15;;;;;;;59.60;27.92;;;7.70;99.90;;;;;;5052062;28;20044;-70
2021/12/16 01:56:13;;;;;;;60.95;28.50;;;7.70;99.90;;;;;;5036629;28;20041;-70
2021/12/16 01:58:39;;;;;;;63.20;28.65;;;7.60;99.90;;;;;;5038712;28;20032;-72
2021/12/16 02:01:18;;;;;;;64.75;29.38;;;7.60;99.90;;;;;;5055171;28;20438;-69
2021/12/16 02:03:53;;;;;;;65.72;29.58;;;7.70;99.90;;;;;;5055474;28;20463;-72
2021/12/16 02:09:23;;;;;;;67.63;29.25;;;7.60;99.90;;;;;;5055100;28;20504;-74
2021/12/16 02:33:34;;;;;;;65.88;29.75;;;7.70;99.90;;;;;;5054945;28;20114;-71
2021/12/16 02:36:14;;;;;;;65.28;30.27;;;7.70;99.90;;;;;;5054289;28;20049;-70
2021/12/16 02:38:43;;;;;;;66.40;31.20;;;7.70;99.90;;;;;;5054455;28;20387;-70
2021/12/16 02:41:10;;;;;;;71.70;31.27;;;7.70;99.90;;;;;;5054775;28;20479;-72
2021/12/16 02:48:45;;;;;;;70.50;30.13;;;7.80;99.90;;;;;;5054153;28;20051;-70
2021/12/16 02:51:14;;;;;;;63.80;30.38;;;7.80;99.90;;;;;;5054490;28;20483;-73
2021/12/16 02:54:02;;;;;;;57.00;29.70;;;7.80;99.90;;;;;;5037715;28;20048;-71
2021/12/16 02:56:29;;;;;;;75.95;31.67;;;7.80;99.90;;;;;;5054208;28;20051;-73
2021/12/16 02:58:57;;;;;;;69.43;31.42;;;7.70;99.90;;;;;;5054399;28;20067;-70
2021/12/16 03:01:32;;;;;;;67.53;30.55;;;7.80;99.90;;;;;;5053947;28;20041;-73
2021/12/16 03:04:00;;;;;;;68.80;30.70;;;7.80;99.90;;;;;;5054542;28;20083;-73
2021/12/16 03:06:29;;;;;;;67.03;30.73;;;7.80;99.90;;;;;;5054053;28;20051;-70
2021/12/16 03:08:55;;;;;;;71.20;32.88;;;7.80;99.90;;;;;;5054064;28;20124;-71
2021/12/16 03:11:32;;;;;;;68.25;31.48;;;7.70;99.90;;;;;;5054277;28;20076;-73
2021/12/16 03:16:49;;;;;;;69.00;31.83;;;7.70;99.90;;;;;;5054543;28;20060;-70
2021/12/16 03:21:46;;;;;;;70.38;31.00;;;7.70;99.90;;;;;;5053419;28;20044;-70
2021/12/16 03:24:36;;;;;;;72.63;30.40;;;7.70;99.90;;;;;;5053030;28;20045;-70
2021/12/16 03:35:24;;;;;;;70.53;32.20;;;7.70;99.90;;;;;;5053311;28;20064;-70
2021/12/16 03:37:50;;;;;;;71.80;32.83;;;7.60;99.90;;;;;;5053183;28;20063;-71
2021/12/16 03:40:17;;;;;;;72.63;33.03;;;7.60;99.90;;;;;;5053641;28;20094;-70
2021/12/16 03:42:50;;;;;;;80.43;32.80;;;7.70;99.90;;;;;;5036703;28;20045;-70
2021/12/16 03:48:25;;;;;;;75.72;33.03;;;7.60;99.90;;;;;;5053128;28;20105;-71
2021/12/16 03:50:51;;;;;;;71.55;33.40;;;7.60;99.90;;;;;;5053644;28;20037;-75
2021/12/16 03:53:18;;;;;;;75.78;33.38;;;7.70;99.90;;;;;;5053404;28;20045;-70
2021/12/16 03:55:45;;;;;;;81.28;35.50;;;7.60;99.90;;;;;;5036384;28;20083;-74
2021/12/16 03:58:12;;;;;;;71.72;31.83;;;7.70;99.90;;;;;;5053875;28;20044;-70
2021/12/16 04:00:43;;;;;;;83.60;34.78;;;7.70;99.90;;;;;;5053299;28;20059;-71
2021/12/16 04:03:10;;;;;;;73.90;34.10;;;7.70;99.90;;;;;;5053064;28;20091;-70
2021/12/16 04:05:36;;;;;;;70.05;34.45;;;7.70;99.90;;;;;;5036465;28;20044;-72
2021/12/16 04:08:04;;;;;;;74.85;33.08;;;7.70;99.90;;;;;;5052602;28;20037;-73
2021/12/16 04:11:00;;;;;;;84.75;35.05;;;7.70;99.90;;;;;;5053784;28;20186;-71
2021/12/16 04:13:26;;;;;;;75.75;33.03;;;7.70;99.90;;;;;;5052668;28;20055;-70
2021/12/16 04:15:52;;;;;;;78.25;32.45;;;7.70;99.90;;;;;;5051787;28;20045;-70
2021/12/16 04:18:19;;;;;;;83.55;35.25;;;7.70;99.90;;;;;;5036110;28;20080;-70
2021/12/16 04:20:46;;;;;;;76.28;33.58;;;7.70;99.90;;;;;;5052624;28;20049;-70
2021/12/16 04:23:12;;;;;;;80.97;33.80;;;7.70;99.90;;;;;;5053073;28;20479;-71
2021/12/16 04:25:42;;;;;;;75.43;33.60;;;7.70;99.90;;;;;;5053253;28;20059;-70
2021/12/16 04:28:14;;;;;;;82.80;35.08;;;7.70;99.90;;;;;;5052467;28;20085;-71
2021/12/16 04:30:40;;;;;;;75.40;33.22;;;7.70;99.90;;;;;;5052520;28;20040;-70
2021/12/16 04:33:06;;;;;;;80.20;35.10;;;7.70;99.90;;;;;;5052424;28;20041;-71
2021/12/16 04:35:33;;;;;;;77.70;33.58;;;7.70;99.90;;;;;;5036096;28;20056;-70
2021/12/16 04:38:00;;;;;;;73.43;32.45;;;7.70;99.90;;;;;;5053160;28;20048;-73
2021/12/16 04:40:28;;;;;;;79.63;34.60;;;7.70;99.90;;;;;;5052550;28;20033;-70
2021/12/16 04:43:01;;;;;;;80.03;34.88;;;7.70;99.90;;;;;;5052238;28;20037;-70
2021/12/16 04:45:28;;;;;;;78.07;33.80;;;7.80;99.90;;;;;;5052084;28;20079;-69
2021/12/16 04:47:54;;;;;;;78.38;33.13;;;7.80;99.90;;;;;;5051856;28;20044;-71
2021/12/16 04:50:20;;;;;;;81.30;34.30;;;7.80;99.90;;;;;;5053022;28;20045;-70
2021/12/16 04:52:46;;;;;;;79.57;33.63;;;7.80;99.90;;;;;;5052569;28;20048;-71
2021/12/16 04:55:14;;;;;;;84.25;34.70;;;7.80;99.90;;;;;;5052503;28;20051;-71
2021/12/16 04:57:41;;;;;;;79.38;32.72;;;7.80;99.90;;;;;;5052290;28;20494;-70
2021/12/16 05:00:10;;;;;;;81.60;32.92;;;7.80;99.90;;;;;;5052203;28;20135;-73
2021/12/16 05:02:36;;;;;;;77.13;33.72;;;7.80;99.90;;;;;;5052062;28;20102;-70
2021/12/16 05:05:02;;;;;;;79.25;34.78;;;7.80;99.90;;;;;;5052417;28;20040;-69
2021/12/16 05:07:28;;;;;;;75.00;32.50;;;7.80;99.90;;;;;;5052557;28;20040;-70
2021/12/16 05:10:09;;;;;;;77.75;33.00;;;7.80;99.90;;;;;;5052170;28;20487;-72
2021/12/16 05:12:40;;;;;;;75.38;31.52;;;7.80;99.90;;;;;;5035206;28;20045;-73
2021/12/16 05:15:11;;;;;;;75.60;30.90;;;7.80;99.90;;;;;;5052048;28;20037;-73
2021/12/16 05:17:42;;;;;;;84.88;32.28;;;7.80;99.90;;;;;;5049187;28;20057;-70
2021/12/16 05:20:12;;;;;;;72.93;31.90;;;7.80;99.90;;;;;;5052517;28;20116;-71
2021/12/16 05:28:09;;;;;;;81.38;32.88;;;7.80;99.90;;;;;;5051958;28;20041;-69
2021/12/16 05:30:36;;;;;;;71.57;30.67;;;7.70;99.90;;;;;;5036840;28;20045;-70
2021/12/16 05:33:02;;;;;;;69.53;33.03;;;7.80;99.90;;;;;;5056018;28;20052;-70
2021/12/16 05:35:29;;;;;;;74.85;31.75;;;7.70;99.90;;;;;;5038615;28;20116;-71
2021/12/16 05:37:56;;;;;;;78.05;31.67;;;7.80;99.90;;;;;;5055621;28;20128;-71
2021/12/16 05:40:25;;;;;;;75.80;33.42;;;7.80;99.90;;;;;;5055994;28;20127;-71
2021/12/16 05:42:58;;;;;;;76.03;32.13;;;7.80;99.90;;;;;;5056048;28;20041;-71
2021/12/16 05:45:25;;;;;;;78.20;33.75;;;7.80;99.90;;;;;;5055711;28;20527;-70
2021/12/16 05:47:53;;;;;;;77.90;33.65;;;7.80;99.90;;;;;;5055328;28;20044;-70
2021/12/16 05:50:19;;;;;;;79.47;33.13;;;7.80;99.90;;;;;;5055302;28;20071;-70
2021/12/16 05:52:45;;;;;;;84.70;35.08;;;7.80;99.90;;;;;;5055883;28;20105;-71
2021/12/16 05:55:14;;;;;;;77.53;33.33;;;7.80;99.90;;;;;;5055832;28;20045;-74
2021/12/16 05:57:42;;;;;;;76.67;33.93;;;7.80;99.90;;;;;;5055927;28;20049;-74
2021/12/16 06:00:20;;;;;;;78.38;33.10;;;7.80;99.90;;;;;;5055404;28;20439;-70
2021/12/16 06:02:46;;;;;;;81.30;32.35;;;7.80;99.90;;;;;;5037701;28;20083;-70
2021/12/16 06:05:12;;;;;;;78.55;33.53;;;7.90;99.90;;;;;;5038145;28;20477;-71
2021/12/16 06:07:38;;;;;;;82.55;32.67;;;7.80;99.90;;;;;;5055439;28;20040;-70
2021/12/16 06:10:07;;;;;;;81.82;33.33;;;7.90;99.90;;;;;;5055268;28;20068;-70
2021/12/16 06:12:33;;;;;;;81.85;33.60;;;7.90;99.90;;;;;;5055451;28;20076;-73
2021/12/16 06:28:20;;;;;;;77.90;32.03;;;7.90;99.90;;;;;;5054812;28;20047;-70
2021/12/16 06:30:46;;;;;;;85.35;33.63;;;7.90;99.90;;;;;;5055237;28;20123;-70
2021/12/16 06:33:17;;;;;;;76.13;33.28;;;7.90;99.90;;;;;;5037868;28;20124;-70
2021/12/16 06:35:43;;;;;;;74.18;32.97;;;7.90;99.90;;;;;;5052310;28;20045;-74
2021/12/16 06:38:09;;;;;;;73.10;32.85;;;7.90;99.90;;;;;;5053757;28;20110;-71
2021/12/16 06:40:35;;;;;;;71.28;31.85;;;8.00;99.90;;;;;;5054029;28;20052;-71
2021/12/16 06:43:02;;;;;;;73.40;33.13;;;7.90;99.90;;;;;;5053416;28;20391;-73
2021/12/16 06:45:32;;;;;;;71.75;31.70;;;7.90;99.90;;;;;;5054708;28;20045;-71
2021/12/16 06:48:06;;;;;;;74.70;32.75;;;7.90;99.90;;;;;;5054528;28;20048;-70
2021/12/16 06:50:45;;;;;;;71.00;31.60;;;8.00;99.90;;;;;;5054818;28;20379;-72
2021/12/16 06:53:13;;;;;;;75.28;32.13;;;8.00;99.90;;;;;;5039013;28;20098;-71
2021/12/16 06:55:47;;;;;;;67.70;31.50;;;7.90;99.90;;;;;;5053991;28;20051;-71
2021/12/16 06:58:21;;;;;;;75.40;32.38;;;7.90;99.90;;;;;;5036842;28;20040;-71
2021/12/16 07:00:52;;;;;;;74.13;32.30;;;8.00;99.90;;;;;;5053825;28;20082;-73
2021/12/16 07:03:21;;;;;;;73.63;31.83;;;8.00;99.90;;;;;;5053665;28;20236;-71
2021/12/16 07:05:52;;;;;;;76.85;32.25;;;8.00;99.90;;;;;;5051735;28;20049;-71
2021/12/16 07:08:19;;;;;;;71.50;32.85;;;8.00;99.90;;;;;;5052854;28;20071;-70
2021/12/16 07:10:52;;;;;;;73.63;31.23;;;8.00;99.90;;;;;;5037858;28;20457;-71
2021/12/16 07:13:28;;;;;;;76.28;32.30;;;8.00;99.90;;;;;;5052931;28;20040;-71
2021/12/16 07:15:54;;;;;;;74.32;32.22;;;8.00;99.90;;;;;;5053697;28;20041;-72
2021/12/16 07:18:20;;;;;;;76.95;32.47;;;7.90;99.90;;;;;;5053147;28;20139;-70
2021/12/16 07:20:46;;;;;;;79.05;33.47;;;8.00;99.90;;;;;;5053676;28;20040;-73
2021/12/16 07:23:11;;;;;;;72.93;32.92;;;8.00;99.90;;;;;;5054149;28;20045;-73
2021/12/16 07:25:38;;;;;;;77.65;32.10;;;8.00;99.90;;;;;;5053946;28;20447;-71
2021/12/16 07:28:07;;;;;;;78.63;33.17;;;8.00;99.90;;;;;;5053000;28;20491;-74
2021/12/16 07:30:41;;;;;;;75.18;33.60;;;8.00;99.90;;;;;;5053469;28;20047;-72
2021/12/16 07:33:08;;;;;;;79.05;33.97;;;8.00;99.90;;;;;;5053847;28;20068;-71
2021/12/16 07:35:34;;;;;;;73.75;32.80;;;8.00;99.90;;;;;;5052152;28;20045;-71
2021/12/16 07:38:00;;;;;;;77.85;33.45;;;8.00;99.90;;;;;;5037290;28;20098;-74
2021/12/16 07:40:27;;;;;;;77.15;32.03;;;8.00;99.90;;;;;;5053292;28;20041;-71
2021/12/16 07:45:36;;;;;;;81.22;34.58;;;7.90;99.90;;;;;;5050377;28;20151;-70
2021/12/16 07:48:03;;;;;;;79.80;33.65;;;7.90;99.90;;;;;;5069090;28;20383;-71
2021/12/16 07:50:30;;;;;;;86.05;34.13;;;7.90;99.90;;;;;;5069312;28;20032;-71
2021/12/16 07:52:56;;;;;;;88.63;34.05;;;7.90;99.90;;;;;;5052206;28;20043;-70
2021/12/16 07:55:22;;;;;;;82.53;32.28;;;7.80;99.90;;;;;;5053120;28;20127;-72
2021/12/16 07:57:49;;;;;;;87.22;34.05;;;7.80;99.90;;;;;;5036108;28;20608;-71
2021/12/16 08:00:21;;;;;;;81.88;33.58;;;7.80;99.90;;;;;;5053350;28;20487;-70
2021/12/16 08:02:48;;;;;;;86.53;34.17;;;7.80;99.90;;;;;;5052711;28;20053;-71
2021/12/16 08:05:15;;;;;;;77.55;33.38;;;7.70;99.90;;;;;;5052648;28;20535;-71
2021/12/16 08:07:42;;;;;;;83.18;34.50;;;7.70;99.90;;;;;;5052478;28;20045;-71
2021/12/16 08:10:13;;;;;;;81.60;34.47;;;7.70;99.90;;;;;;5052425;28;20032;-73
2021/12/16 08:12:39;;;;;;;70.15;32.17;;;7.70;99.90;;;;;;5052524;28;20106;-71
2021/12/16 08:15:06;;;;;;;88.65;34.53;;;7.60;99.90;;;;;;5035921;28;20033;-71
2021/12/16 08:17:32;;;;;;;85.68;34.38;;;7.60;99.90;;;;;;5035794;28;20040;-71
2021/12/16 08:19:58;;;;;;;79.30;33.78;;;7.60;99.90;;;;;;5051528;28;20102;-70
2021/12/16 08:22:24;;;;;;;96.70;36.08;;;7.60;99.90;;;;;;5051366;28;20492;-74
2021/12/16 08:24:50;;;;;;;88.32;33.95;;;7.60;99.90;;;;;;5052090;28;20044;-71
2021/12/16 08:27:17;;;;;;;92.10;35.90;;;7.60;99.90;;;;;;5046918;28;20105;-70
2021/12/16 08:29:44;;;;;;;84.00;35.05;;;7.60;99.90;;;;;;5047878;28;20119;-70
2021/12/16 08:32:09;;;;;;;89.00;35.90;;;7.60;99.90;;;;;;5068638;28;20415;-71
2021/12/16 08:34:38;;;;;;;98.55;36.58;;;7.60;99.90;;;;;;5052284;28;20480;-72
2021/12/16 08:37:07;;;;;;;118.25;38.28;;;7.60;99.90;;;;;;5051876;28;20049;-70
2021/12/16 08:39:35;;;;;;;110.38;38.58;;;7.70;99.90;;;;;;5051895;28;20048;-70
2021/12/16 08:42:03;;;;;;;116.13;37.17;;;7.70;99.90;;;;;;5051903;28;20082;-71
2021/12/16 08:44:29;;;;;;;123.78;38.13;;;7.70;99.90;;;;;;5052201;28;20123;-73
2021/12/16 08:47:07;;;;;;;118.60;37.58;;;7.70;99.90;;;;;;5051500;28;20124;-71
2021/12/16 08:49:34;;;;;;;125.90;37.47;;;7.80;99.90;;;;;;5035537;28;20048;-71
2021/12/16 08:52:04;;;;;;;180.88;43.10;;;7.70;99.90;;;;;;5051551;28;20124;-71
2021/12/16 08:54:31;;;;;;;168.45;40.55;;;7.80;99.90;;;;;;5052349;28;20098;-72
2021/12/16 08:56:58;;;;;;;208.60;43.75;;;7.80;99.90;;;;;;5052377;28;20533;-71
2021/12/16 08:59:25;;;;;;;195.23;41.67;;;7.80;99.90;;;;;;5035139;28;20072;-73
2021/12/16 09:01:54;;;;;;;140.93;39.30;;;7.80;99.90;;;;;;5035470;28;20045;-70
2021/12/16 09:04:23;;;;;;;130.73;38.97;;;7.80;99.90;;;;;;5051148;28;20084;-73
2021/12/16 09:06:52;;;;;;;239.95;42.50;;;7.80;99.90;;;;;;5052060;28;20045;-73
2021/12/16 09:09:18;;;;;;;122.63;34.90;;;7.80;99.90;;;;;;5051124;28;20041;-71
2021/12/16 09:12:01;;;;;;;132.38;37.10;;;7.80;99.90;;;;;;5034982;28;20120;-73
2021/12/16 09:14:27;;;;;;;174.30;40.05;;;7.90;99.90;;;;;;5051694;28;20115;-71
2021/12/16 09:16:53;;;;;;;155.40;37.17;;;7.90;99.90;;;;;;5051734;28;20041;-71
2021/12/16 09:19:19;;;;;;;118.18;37.00;;;7.90;99.90;;;;;;5052229;28;20033;-71
2021/12/16 09:21:45;;;;;;;141.95;39.22;;;8.00;99.90;;;;;;5052783;28;20037;-71
2021/12/16 09:24:14;;;;;;;130.50;36.75;;;8.00;99.90;;;;;;5052238;28;20123;-72
2021/12/16 09:26:41;;;;;;;97.68;34.17;;;8.00;99.90;;;;;;5052301;28;20045;-73
2021/12/16 09:29:06;;;;;;;98.82;35.40;;;8.00;99.90;;;;;;5051650;28;20040;-74
2021/12/16 09:31:33;;;;;;;116.85;35.45;;;8.10;99.90;;;;;;5051684;28;20041;-71
2021/12/16 09:34:05;;;;;;;108.53;35.70;;;8.10;99.90;;;;;;5051915;28;20075;-73
2021/12/16 09:36:33;;;;;;;118.88;34.90;;;8.10;99.90;;;;;;5052430;28;20051;-72
2021/12/16 09:38:59;;;;;;;106.57;33.47;;;8.10;99.90;;;;;;5051714;28;20041;-72
2021/12/16 09:41:27;;;;;;;90.03;32.17;;;8.00;99.90;;;;;;5051236;28;20052;-74
2021/12/16 09:43:54;;;;;;;92.47;32.30;;;8.10;99.90;;;;;;5051633;28;20040;-72
2021/12/16 09:46:23;;;;;;;84.50;31.73;;;8.00;99.90;;;;;;5051633;28;20055;-71
2021/12/16 09:48:50;;;;;;;110.27;34.83;;;8.00;99.90;;;;;;5051583;28;20152;-72
2021/12/16 09:51:22;;;;;;;82.95;33.47;;;8.00;99.90;;;;;;5051873;28;20488;-72
2021/12/16 09:53:54;;;;;;;94.55;33.58;;;8.10;99.90;;;;;;5052093;28;20120;-72
2021/12/16 09:56:23;;;;;;;106.25;32.00;;;8.10;99.90;;;;;;5051722;28;20041;-72
2021/12/16 09:58:50;;;;;;;93.43;31.98;;;8.10;99.90;;;;;;5051450;28;20041;-73
2021/12/16 10:01:19;;;;;;;96.43;31.90;;;8.10;99.90;;;;;;5034984;28;20056;-71
2021/12/16 10:03:48;;;;;;;84.30;30.15;;;8.00;99.90;;;;;;5035274;28;20041;-71
2021/12/16 10:06:16;;;;;;;73.90;28.55;;;8.00;99.90;;;;;;5051594;28;20048;-72
2021/12/16 10:08:42;;;;;;;89.20;30.98;;;8.00;99.90;;;;;;5051343;28;20387;-73
2021/12/16 10:11:08;;;;;;;98.28;30.85;;;8.00;99.90;;;;;;5034855;28;20119;-71
2021/12/16 10:13:43;;;;;;;91.18;30.05;;;8.00;99.90;;;;;;5052409;28;20049;-73
2021/12/16 10:18:36;;;;;;;79.07;28.58;;;8.10;99.90;;;;;;5055346;28;20135;-74
2021/12/16 10:21:05;;;;;;;85.55;30.33;;;8.10;99.90;;;;;;5055307;28;20044;-71
2021/12/16 10:23:38;;;;;;;71.88;27.48;;;8.10;99.90;;;;;;5038303;28;20091;-73
2021/12/16 10:26:07;;;;;;;75.85;28.98;;;8.10;99.90;;;;;;5055820;28;20044;-71
2021/12/16 10:28:36;;;;;;;76.82;29.55;;;8.20;99.90;;;;;;5037970;28;20045;-71
2021/12/16 10:31:12;;;;;;;87.47;30.88;;;8.20;99.90;;;;;;5054580;28;20049;-71
2021/12/16 10:33:37;;;;;;;95.55;31.08;;;8.20;99.90;;;;;;5038450;28;20107;-72
2021/12/16 10:36:20;;;;;;;111.90;34.78;;;8.30;99.90;;;;;;5054128;28;20049;-71
2021/12/16 10:39:05;;;;;;;92.55;33.30;;;8.30;99.90;;;;;;5050595;28;20053;-73
2021/12/16 10:41:36;;;;;;;97.75;31.80;;;8.30;99.90;;;;;;5054650;28;20041;-72
2021/12/16 10:44:12;;;;;;;88.82;31.70;;;8.30;99.90;;;;;;5038139;28;20102;-71
2021/12/16 10:46:46;;;;;;;78.25;30.65;;;8.30;99.90;;;;;;5054206;28;20041;-71
2021/12/16 10:49:20;;;;;;;85.20;31.15;;;8.40;99.90;;;;;;5054436;28;20036;-71
2021/12/16 10:51:54;;;;;;;80.57;30.75;;;8.40;99.90;;;;;;5038796;28;20045;-71
2021/12/16 10:54:24;;;;;;;91.22;31.45;;;8.30;99.90;;;;;;5054190;28;20438;-72
2021/12/16 10:57:17;;;;;;;72.88;33.45;;;8.40;99.90;;;;;;5037581;28;20614;-75
2021/12/16 10:59:49;;;;;;;84.82;31.75;;;8.40;99.90;;;;;;5054268;28;20041;-72
2021/12/16 11:02:23;;;;;;;107.78;30.73;;;8.40;99.90;;;;;;5053932;28;20103;-74
2021/12/16 11:04:57;;;;;;;82.53;28.60;;;8.40;99.90;;;;;;5054197;28;20056;-71
2021/12/16 11:07:32;;;;;;;81.18;30.08;;;8.40;99.90;;;;;;5053564;28;20383;-73
2021/12/16 11:10:12;;;;;;;66.10;27.17;;;8.40;99.90;;;;;;5054315;28;20044;-73
2021/12/16 11:13:02;;;;;;;74.72;29.92;;;8.40;99.90;;;;;;5054098;28;20033;-71
2021/12/16 11:15:41;;;;;;;78.53;29.15;;;8.40;99.90;;;;;;5054061;28;20041;-72
2021/12/16 11:18:10;;;;;;;87.90;29.27;;;8.40;99.90;;;;;;5054024;28;20040;-72
2021/12/16 11:20:41;;;;;;;78.47;28.92;;;8.40;99.90;;;;;;5053839;28;20036;-76
2021/12/16 11:23:23;;;;;;;72.05;29.00;;;8.50;99.90;;;;;;5037258;28;20048;-71
2021/12/16 11:25:51;;;;;;;74.63;29.23;;;8.50;99.90;;;;;;5053916;28;20384;-72
2021/12/16 11:28:31;;;;;;;74.70;28.08;;;8.50;99.90;;;;;;5052320;28;20501;-71
2021/12/16 11:31:01;;;;;;;;;;;8.50;99.90;;;;;;5053950;28;20120;-73
2021/12/16 11:33:29;;;;;;;;;;;8.40;99.90;;;;;;5053749;28;19921;-71
2021/12/16 11:36:17;;;;;;;70.25;27.33;;;8.40;99.90;;;;;;5053699;28;19916;-72
2021/12/16 11:39:05;;;;;;;79.20;27.90;;;8.50;99.90;;;;;;5053387;28;20106;-71
2021/12/16 11:41:40;;;;;;;73.38;26.20;;;8.50;99.90;;;;;;5053878;28;20044;-72
2021/12/16 11:44:20;;;;;;;78.10;27.60;;;8.50;99.90;;;;;;5053353;28;20086;-72
2021/12/16 11:46:54;;;;;;;77.13;27.42;;;8.50;99.90;;;;;;5053548;28;20049;-72
2021/12/16 11:49:21;;;;;;;84.90;28.40;;;8.50;99.90;;;;;;5053254;28;20041;-73
2021/12/16 11:52:09;;;;;;;67.95;26.60;;;8.50;99.90;;;;;;5053870;28;20055;-71
2021/12/16 11:54:40;;;;;;;86.07;28.88;;;8.50;99.90;;;;;;5053457;28;20041;-72
2021/12/16 11:57:14;;;;;;;74.22;26.45;;;8.50;99.90;;;;;;5053224;28;20090;-72
2021/12/16 11:59:59;;;;;;;78.82;28.30;;;8.50;99.90;;;;;;5052918;28;20069;-74
2021/12/16 12:03:00;;;;;;;82.57;27.23;;;8.40;99.90;;;;;;5053063;28;20090;-75
2021/12/16 12:05:37;;;;;;;68.75;26.48;;;8.50;99.90;;;;;;5053053;28;20040;-73
2021/12/16 12:08:04;;;;;;;77.95;26.58;;;8.50;99.90;;;;;;5052596;28;20040;-74
2021/12/16 12:11:06;;;;;;;89.70;27.10;;;8.50;99.90;;;;;;5053395;28;20083;-72
2021/12/16 12:13:41;;;;;;;73.35;26.73;;;8.60;99.90;;;;;;5021662;28;20049;-71
2021/12/16 12:16:10;;;;;;;72.50;26.08;;;8.60;99.90;;;;;;5052523;28;20474;-71
2021/12/16 12:18:43;;;;;;;87.40;29.33;;;8.60;99.90;;;;;;5052793;28;20049;-74
2021/12/16 12:21:30;;;;;;;73.72;25.92;;;8.60;99.90;;;;;;5053158;28;20077;-74
2021/12/16 12:23:58;;;;;;;79.22;26.15;;;8.60;99.90;;;;;;5052830;28;20530;-75
2021/12/16 12:26:26;;;;;;;75.82;26.10;;;8.60;99.90;;;;;;5052351;28;20044;-71
2021/12/16 12:28:57;;;;;;;82.95;27.60;;;8.60;99.90;;;;;;5052235;28;20037;-72
2021/12/16 12:31:27;;;;;;;78.03;26.15;;;8.60;99.90;;;;;;5052951;28;20128;-70
2021/12/16 12:33:53;;;;;;;80.93;27.58;;;8.60;99.90;;;;;;5052800;28;20041;-72
2021/12/16 12:36:20;;;;;;;80.88;27.35;;;8.60;99.90;;;;;;5052315;28;20117;-71
2021/12/16 12:38:46;;;;;;;85.18;27.85;;;8.70;99.90;;;;;;5035932;28;20036;-71
2021/12/16 12:41:12;;;;;;;89.55;27.33;;;8.70;99.90;;;;;;5051495;28;20052;-73
2021/12/16 12:43:38;;;;;;;72.45;25.45;;;8.70;99.90;;;;;;5052856;28;20060;-75
2021/12/16 12:46:05;;;;;;;79.50;26.90;;;8.70;99.90;;;;;;5052503;28;20375;-72
2021/12/16 12:48:37;;;;;;;82.07;25.92;;;8.70;99.90;;;;;;5035827;28;20049;-72
2021/12/16 12:51:04;;;;;;;76.80;24.98;;;8.70;99.90;;;;;;5052382;28;20479;-72
2021/12/16 12:53:47;;;;;;;74.35;24.13;;;8.70;99.90;;;;;;5052444;28;20041;-71
2021/12/16 12:56:23;;;;;;;84.00;25.15;;;8.70;99.90;;;;;;5052203;28;20116;-71
2021/12/16 12:58:52;;;;;;;80.22;26.15;;;8.70;99.90;;;;;;5052098;28;20052;-74
2021/12/16 13:01:17;;;;;;;82.68;26.00;;;8.70;99.90;;;;;;5052214;28;20037;-72
2021/12/16 13:03:45;;;;;;;91.50;28.55;;;8.70;99.90;;;;;;5052267;28;20048;-71
2021/12/16 13:06:21;;;;;;;87.50;25.88;;;8.80;99.90;;;;;;5035564;28;20059;-71
2021/12/16 13:08:49;;;;;;;99.00;27.52;;;8.80;99.90;;;;;;5052717;28;20073;-75
2021/12/16 13:11:24;;;;;;;89.85;25.83;;;8.70;99.90;;;;;;5052314;28;20597;-72
2021/12/16 13:14:25;;;;;;;91.63;28.02;;;8.70;99.90;;;;;;5052346;28;20048;-71
2021/12/16 13:31:34;;;;;;;78.57;25.88;;;8.70;99.90;;;;;;5052172;28;20052;-74
2021/12/16 13:34:01;;;;;;;73.15;25.02;;;8.70;99.90;;;;;;5052351;28;20102;-75
2021/12/16 13:36:46;;;;;;;76.43;24.80;;;8.70;99.90;;;;;;5051726;28;20052;-72
2021/12/16 13:39:20;;;;;;;72.88;24.55;;;8.70;99.90;;;;;;5052008;28;20047;-72
2021/12/16 13:42:00;;;;;;;79.43;26.50;;;8.70;99.90;;;;;;5051728;28;20040;-71
2021/12/16 13:44:47;;;;;;;74.35;25.20;;;8.80;99.90;;;;;;5050189;28;20040;-71
2021/12/16 13:59:56;;;;;;;79.05;24.40;;;8.70;99.90;;;;;;5051532;28;20060;-72
2021/12/16 14:01:55;;;;;;;76.50;25.23;;;8.70;99.90;;;;;;5051082;28;20051;-71
2021/12/16 14:04:57;;;;;;;76.90;23.95;;;8.70;99.90;;;;;;5034293;28;20053;-73
2021/12/16 14:07:55;;;;;;;83.05;24.25;;;8.70;99.90;;;;;;5034618;28;20151;-74
2021/12/16 14:10:33;;;;;;;73.63;25.75;;;8.60;99.90;;;;;;5034632;28;20060;-72
2021/12/16 14:35:53;;;;;;;135.63;27.73;;;8.50;99.90;;;;;;5053477;28;20056;-73
2021/12/16 14:39:04;;;;;;;95.75;24.73;;;8.60;99.90;;;;;;5053689;28;20060;-72
2021/12/16 14:41:42;;;;;;;105.28;25.50;;;8.50;99.90;;;;;;5052620;28;20052;-72
2021/12/16 14:46:48;;;;;;;156.32;32.17;;;8.50;99.90;;;;;;5050457;28;20037;-73
2021/12/16 14:49:14;;;;;;;101.82;28.25;;;8.50;99.90;;;;;;5057857;28;20033;-72
2021/12/16 14:51:40;;;;;;;121.65;28.92;;;8.50;99.90;;;;;;5033939;28;20048;-72
2021/12/16 14:54:07;;;;;;;117.82;29.95;;;8.50;99.90;;;;;;5060054;28;20427;-72
2021/12/16 14:56:38;;;;;;;218.02;35.33;;;8.50;99.90;;;;;;5053289;28;20372;-73
2021/12/16 14:59:08;;;;;;;266.70;35.92;;;8.60;99.90;;;;;;5053359;28;20391;-72
2021/12/16 15:01:36;;;;;;;;;;;8.50;99.90;;;;;;5053434;28;20506;-72
2021/12/16 15:04:05;;;;;;;197.90;33.45;;;8.50;99.90;;;;;;5052587;28;19939;-72
2021/12/16 15:06:39;;;;;;;213.38;41.97;;;8.50;99.90;;;;;;5053598;28;20048;-71
2021/12/16 15:09:15;;;;;;;189.68;35.70;;;8.50;99.90;;;;;;5052850;28;20037;-75
2021/12/16 15:12:13;;;;;;;203.85;31.58;;;8.50;99.90;;;;;;5041038;28;20138;-75
2021/12/16 15:35:52;;;;;;;155.23;29.85;;;8.40;99.90;;;;;;5048911;28;20057;-72
2021/12/16 15:40:39;;;;;;;110.55;27.38;;;8.40;99.90;;;;;;5044770;28;20051;-71
2021/12/16 15:43:08;;;;;;;111.60;27.05;;;8.40;99.90;;;;;;5035876;28;20041;-72
2021/12/16 15:45:44;;;;;;;97.70;26.08;;;8.30;99.90;;;;;;5052929;28;20045;-70
2021/12/16 15:48:17;;;;;;;130.68;25.77;;;8.30;99.90;;;;;;5052421;28;20124;-71
2021/12/16 15:50:54;;;;;;;146.63;28.77;;;8.30;99.90;;;;;;5051288;28;20399;-71
2021/12/16 15:53:25;;;;;;;165.95;29.88;;;8.20;99.90;;;;;;5052706;28;20124;-72
2021/12/16 15:55:59;;;;;;;113.22;28.20;;;8.20;99.90;;;;;;5052653;28;20043;-71
2021/12/16 15:58:29;;;;;;;134.35;31.00;;;8.20;99.90;;;;;;5035872;28;20392;-71
2021/12/16 16:01:08;;;;;;;150.02;33.03;;;8.20;99.90;;;;;;5051401;28;20049;-71
2021/12/16 16:03:35;;;;;;;130.80;28.58;;;8.10;99.90;;;;;;5052128;28;20083;-72
2021/12/16 16:06:06;;;;;;;118.45;28.75;;;8.10;99.90;;;;;;5052242;28;20069;-71
2021/12/16 16:08:35;;;;;;;172.63;30.10;;;8.10;99.90;;;;;;5052211;28;20086;-72
2021/12/16 16:11:07;;;;;;;129.23;25.48;;;8.00;99.90;;;;;;5052306;28;20041;-71
2021/12/16 16:13:40;;;;;;;105.38;24.70;;;8.00;99.90;;;;;;5052068;28;20079;-71
2021/12/16 16:16:06;;;;;;;86.20;22.20;;;7.90;99.90;;;;;;5051695;28;20499;-73
2021/12/16 16:18:39;;;;;;;135.82;24.92;;;7.90;99.90;;;;;;5051497;28;20037;-72
2021/12/16 16:21:13;;;;;;;88.05;21.33;;;7.90;99.90;;;;;;5052124;28;20124;-71
2021/12/16 16:23:46;;;;;;;84.00;30.63;;;7.90;99.90;;;;;;5051938;28;20052;-72
2021/12/16 16:26:14;;;;;;;413.95;118.75;;;7.80;99.90;;;;;;5051976;28;20098;-72
2021/12/16 16:28:43;;;;;;;247.32;69.95;;;7.80;99.90;;;;;;5051300;28;20433;-72
2021/12/16 16:31:12;;;;;;;122.13;41.20;;;7.70;99.90;;;;;;5052140;28;20048;-71
2021/12/16 16:33:38;;;;;;;132.45;41.20;;;7.70;99.90;;;;;;5035513;28;20044;-72
2021/12/16 16:36:13;;;;;;;164.88;53.08;;;7.70;99.90;;;;;;5050922;28;20053;-72
2021/12/16 16:38:52;;;;;;;124.03;41.33;;;7.70;99.90;;;;;;5035015;28;20425;-71